Time;durP1;ratioP1;P1;durP2;ratioP2;P2;SDS_P1;SDS_P2;PMS_P1;PMS_P2;Temp;Humidity;BMP_temperature;BMP_pressure;BME280_temperature;BME280_humidity;BME280_pressure;Samples;Min_cycle;Max_cycle;Signal;HPM_P1;HPM_P2
2022/01/20 00:00:32;;;;;;;9.88;4.63;;;;;;;;;;4975283;28;20051;-62
2022/01/20 00:03:07;;;;;;;10.98;5.15;;;;;;;;;;4975412;28;20054;-63
2022/01/20 00:05:53;;;;;;;9.68;4.82;;;;;;;;;;4974437;28;20069;-60
2022/01/20 00:08:33;;;;;;;11.13;5.05;;;;;;;;;;4975378;28;20412;-59
2022/01/20 00:27:33;;;;;;;9.60;4.93;;;;;;;;;;4974732;28;20077;-60
2022/01/20 00:32:52;;;;;;;9.18;4.57;;;;;;;;;;4967813;28;20058;-60
2022/01/20 00:35:24;;;;;;;10.10;5.10;;;;;;;;;;4974671;28;20055;-60
2022/01/20 00:37:50;;;;;;;9.07;4.55;;;;;;;;;;4974448;28;20559;-60
2022/01/20 00:40:18;;;;;;;9.98;5.00;;;;;;;;;;4974522;28;20058;-59
2022/01/20 00:42:46;;;;;;;11.88;4.85;;;;;;;;;;4974456;28;20053;-59
2022/01/20 00:45:13;;;;;;;8.48;4.53;;;;;;;;;;4974534;28;20587;-59
2022/01/20 00:47:40;;;;;;;10.15;4.68;;;;;;;;;;4974233;28;20055;-60
2022/01/20 00:50:09;;;;;;;10.05;5.18;;;;;;;;;;4974595;28;20057;-60
2022/01/20 00:52:36;;;;;;;9.55;4.25;;;;;;;;;;4974412;28;20489;-59
2022/01/20 00:55:05;;;;;;;9.32;4.55;;;;;;;;;;4974342;28;20137;-60
2022/01/20 00:57:32;;;;;;;9.27;5.32;;;;;;;;;;4973868;28;20047;-59
2022/01/20 01:00:00;;;;;;;9.18;4.43;;;;;;;;;;4974310;28;20416;-60
2022/01/20 01:02:27;;;;;;;8.00;4.47;;;;;;;;;;4974187;28;20453;-59
2022/01/20 01:04:54;;;;;;;10.27;4.90;;;;;;;;;;4974144;28;20097;-59
2022/01/20 01:10:02;;;;;;;8.85;4.35;;;;;;;;;;4965389;28;20516;-59
2022/01/20 01:12:36;;;;;;;7.97;3.92;;;;;;;;;;4974215;28;20059;-60
2022/01/20 01:15:12;;;;;;;10.00;5.32;;;;;;;;;;4973697;28;20059;-60
2022/01/20 01:20:25;;;;;;;9.05;3.92;;;;;;;;;;4973033;28;20065;-60
2022/01/20 01:22:52;;;;;;;10.25;4.65;;;;;;;;;;4963499;28;20532;-60
2022/01/20 01:25:19;;;;;;;8.60;3.78;;;;;;;;;;4965859;28;20514;-61
2022/01/20 01:27:46;;;;;;;8.07;4.20;;;;;;;;;;4962310;28;20401;-62
2022/01/20 01:30:36;;;;;;;10.75;4.60;;;;;;;;;;4963477;28;20063;-59
2022/01/20 01:33:05;;;;;;;8.20;4.07;;;;;;;;;;4973207;28;20053;-62
2022/01/20 01:35:33;;;;;;;8.27;3.65;;;;;;;;;;4973970;28;20497;-62
2022/01/20 01:40:45;;;;;;;9.43;4.22;;;;;;;;;;4973465;28;20128;-60
2022/01/20 01:43:19;;;;;;;11.35;4.65;;;;;;;;;;4973663;28;20500;-61
2022/01/20 01:45:48;;;;;;;10.50;4.53;;;;;;;;;;4973575;28;20059;-61
2022/01/20 01:48:15;;;;;;;9.10;4.70;;;;;;;;;;4973301;28;20050;-61
2022/01/20 01:50:42;;;;;;;8.50;4.38;;;;;;;;;;4973335;28;20421;-60
2022/01/20 01:53:09;;;;;;;8.90;4.28;;;;;;;;;;4973381;28;20047;-60
2022/01/20 01:55:37;;;;;;;9.32;4.13;;;;;;;;;;4973132;28;20516;-61
2022/01/20 01:58:04;;;;;;;7.85;4.30;;;;;;;;;;4973064;28;20505;-60
2022/01/20 02:00:31;;;;;;;8.55;4.00;;;;;;;;;;4973107;28;20421;-61
2022/01/20 02:03:00;;;;;;;9.57;3.95;;;;;;;;;;4973315;28;20423;-60
2022/01/20 02:05:28;;;;;;;8.75;4.32;;;;;;;;;;4973332;28;20055;-59
2022/01/20 02:08:26;;;;;;;9.55;4.13;;;;;;;;;;4973057;28;20050;-59
2022/01/20 02:19:10;;;;;;;7.13;3.45;;;;;;;;;;4973126;28;20134;-61
2022/01/20 02:21:46;;;;;;;8.48;4.20;;;;;;;;;;4973159;28;20047;-61
2022/01/20 02:24:13;;;;;;;8.15;4.22;;;;;;;;;;4973289;28;20515;-60
2022/01/20 02:26:40;;;;;;;7.05;4.22;;;;;;;;;;4972865;28;20053;-62
2022/01/20 02:29:07;;;;;;;9.98;4.53;;;;;;;;;;4975946;28;20079;-61
2022/01/20 02:31:34;;;;;;;9.25;4.30;;;;;;;;;;4976877;28;20141;-61
2022/01/20 02:34:01;;;;;;;11.02;4.50;;;;;;;;;;4976925;28;20439;-61
2022/01/20 02:36:29;;;;;;;8.13;4.40;;;;;;;;;;4976667;28;20094;-59
2022/01/20 02:39:04;;;;;;;8.93;4.20;;;;;;;;;;4976724;28;20058;-61
2022/01/20 02:47:00;;;;;;;9.45;4.25;;;;;;;;;;4976540;28;20143;-61
2022/01/20 02:49:27;;;;;;;9.27;4.55;;;;;;;;;;4976779;28;20047;-61
2022/01/20 02:51:56;;;;;;;9.27;3.95;;;;;;;;;;4976728;28;20503;-59
2022/01/20 02:54:25;;;;;;;8.52;4.00;;;;;;;;;;4976515;28;20058;-61
2022/01/20 02:56:52;;;;;;;7.65;3.95;;;;;;;;;;4976121;28;20513;-58
2022/01/20 02:59:19;;;;;;;9.13;4.20;;;;;;;;;;4976743;28;20507;-57
2022/01/20 03:01:46;;;;;;;8.38;4.53;;;;;;;;;;4976387;28;20511;-59
2022/01/20 03:04:13;;;;;;;9.15;4.43;;;;;;;;;;4976127;28;20047;-61
2022/01/20 03:06:40;;;;;;;8.20;4.53;;;;;;;;;;4975968;28;20046;-61
2022/01/20 03:09:07;;;;;;;10.27;4.45;;;;;;;;;;4976137;28;20051;-61
2022/01/20 03:11:36;;;;;;;9.52;5.03;;;;;;;;;;4976074;28;20058;-61
2022/01/20 03:14:03;;;;;;;10.25;4.53;;;;;;;;;;4976140;28;20070;-61
2022/01/20 03:16:30;;;;;;;9.85;4.32;;;;;;;;;;4975759;28;20055;-61
2022/01/20 03:18:57;;;;;;;9.38;4.40;;;;;;;;;;4975824;28;20496;-60
2022/01/20 03:21:24;;;;;;;9.45;4.50;;;;;;;;;;4975986;28;20059;-59
2022/01/20 03:23:51;;;;;;;10.63;4.55;;;;;;;;;;4975953;28;20046;-61
2022/01/20 03:26:18;;;;;;;9.32;4.20;;;;;;;;;;4975798;28;20082;-60
2022/01/20 03:28:46;;;;;;;7.70;4.45;;;;;;;;;;4975744;28;20138;-59
2022/01/20 03:31:13;;;;;;;8.48;4.75;;;;;;;;;;4975640;28;20058;-59
2022/01/20 03:33:40;;;;;;;8.80;4.22;;;;;;;;;;4976140;28;20048;-61
2022/01/20 03:36:07;;;;;;;9.55;4.07;;;;;;;;;;4975682;28;20419;-61
2022/01/20 03:38:34;;;;;;;10.13;4.30;;;;;;;;;;4975301;28;20057;-61
2022/01/20 03:41:01;;;;;;;10.88;4.70;;;;;;;;;;4975597;28;20514;-61
2022/01/20 03:43:28;;;;;;;10.07;4.55;;;;;;;;;;4975629;28;20047;-60
2022/01/20 03:45:58;;;;;;;10.25;4.75;;;;;;;;;;4975432;28;20058;-60
2022/01/20 03:48:28;;;;;;;9.88;4.90;;;;;;;;;;4975825;28;20058;-61
2022/01/20 03:51:02;;;;;;;9.15;4.70;;;;;;;;;;4975264;28;20106;-60
2022/01/20 03:53:30;;;;;;;11.35;5.40;;;;;;;;;;4975400;28;20050;-61
2022/01/20 03:55:57;;;;;;;9.13;4.57;;;;;;;;;;4999142;23;20046;-67
2022/01/20 03:58:25;;;;;;;9.30;4.38;;;;;;;;;;4996204;28;20060;-67
2022/01/20 04:00:52;;;;;;;11.32;4.72;;;;;;;;;;4996152;28;20046;-67
2022/01/20 04:03:21;;;;;;;9.05;4.28;;;;;;;;;;4996737;28;20052;-67
2022/01/20 04:06:00;;;;;;;13.30;4.70;;;;;;;;;;4997200;28;20050;-67
2022/01/20 04:08:30;;;;;;;11.32;4.65;;;;;;;;;;4996091;28;20058;-67
2022/01/20 04:10:57;;;;;;;11.80;5.40;;;;;;;;;;4995407;28;20093;-67
2022/01/20 04:13:28;;;;;;;10.30;4.50;;;;;;;;;;4996690;28;20154;-67
2022/01/20 04:15:55;;;;;;;12.85;5.05;;;;;;;;;;4996065;28;20082;-66
2022/01/20 04:18:26;;;;;;;10.00;4.75;;;;;;;;;;4995371;28;20055;-67
2022/01/20 04:20:53;;;;;;;10.90;5.20;;;;;;;;;;4996850;28;20062;-67
2022/01/20 04:23:20;;;;;;;12.70;5.28;;;;;;;;;;4996534;28;20137;-67
2022/01/20 04:25:47;;;;;;;10.23;4.55;;;;;;;;;;4996541;28;20503;-67
2022/01/20 04:28:15;;;;;;;10.25;5.03;;;;;;;;;;4995504;28;20133;-68
2022/01/20 04:30:42;;;;;;;12.02;5.03;;;;;;;;;;4996836;28;20054;-68
2022/01/20 04:33:09;;;;;;;10.98;4.88;;;;;;;;;;4996536;28;20061;-68
2022/01/20 04:35:37;;;;;;;9.05;4.70;;;;;;;;;;4996910;28;20195;-68
2022/01/20 04:38:05;;;;;;;11.93;4.82;;;;;;;;;;4995628;28;20054;-68
2022/01/20 04:40:38;;;;;;;11.70;4.63;;;;;;;;;;4996639;28;20137;-68
2022/01/20 04:43:05;;;;;;;11.98;5.45;;;;;;;;;;4996309;28;20046;-68
2022/01/20 04:45:37;;;;;;;9.57;4.68;;;;;;;;;;4996227;28;20476;-67
2022/01/20 04:48:17;;;;;;;10.70;4.90;;;;;;;;;;4995732;28;20058;-67
2022/01/20 04:58:58;;;;;;;9.82;5.10;;;;;;;;;;4985692;28;20228;-68
2022/01/20 05:01:25;;;;;;;10.38;4.72;;;;;;;;;;4995960;28;20046;-67
2022/01/20 05:03:53;;;;;;;11.15;4.70;;;;;;;;;;4996055;28;20484;-67
2022/01/20 05:06:22;;;;;;;11.48;5.03;;;;;;;;;;4996248;28;20065;-67
2022/01/20 05:08:52;;;;;;;9.88;5.00;;;;;;;;;;4995489;28;20133;-68
2022/01/20 05:11:19;;;;;;;9.18;4.10;;;;;;;;;;4995888;28;20069;-68
2022/01/20 05:13:46;;;;;;;12.65;5.65;;;;;;;;;;4995489;28;20054;-67
2022/01/20 05:16:13;;;;;;;11.05;5.57;;;;;;;;;;4996186;28;20104;-68
2022/01/20 05:18:40;;;;;;;10.80;5.30;;;;;;;;;;4995266;28;20145;-67
2022/01/20 05:21:07;;;;;;;10.60;4.95;;;;;;;;;;4994782;28;20131;-68
2022/01/20 05:23:35;;;;;;;9.75;4.88;;;;;;;;;;4995485;28;20055;-69
2022/01/20 05:26:02;;;;;;;10.43;5.15;;;;;;;;;;4996260;28;20058;-68
2022/01/20 05:28:29;;;;;;;11.25;4.78;;;;;;;;;;4995016;28;20494;-68
2022/01/20 05:30:56;;;;;;;11.68;5.70;;;;;;;;;;4994866;28;20042;-67
2022/01/20 05:33:23;;;;;;;9.63;4.90;;;;;;;;;;4994589;28;20386;-68
2022/01/20 05:35:50;;;;;;;10.13;5.75;;;;;;;;;;4994997;28;20480;-67
2022/01/20 05:38:17;;;;;;;10.80;5.43;;;;;;;;;;4994719;28;20061;-68
2022/01/20 05:40:46;;;;;;;11.93;5.55;;;;;;;;;;4995519;28;20514;-67
2022/01/20 05:43:13;;;;;;;12.38;5.57;;;;;;;;;;4995427;28;20053;-67
2022/01/20 05:45:40;;;;;;;13.48;5.40;;;;;;;;;;4994920;28;20050;-68
2022/01/20 05:48:14;;;;;;;12.40;5.47;;;;;;;;;;4995085;28;20483;-68
2022/01/20 05:50:41;;;;;;;10.85;5.65;;;;;;;;;;4995419;28;20057;-68
2022/01/20 05:53:08;;;;;;;12.98;6.57;;;;;;;;;;4994937;28;20058;-68
2022/01/20 05:55:36;;;;;;;12.45;6.00;;;;;;;;;;4995210;28;20475;-68
2022/01/20 05:58:06;;;;;;;11.35;5.63;;;;;;;;;;4994701;28;20057;-68
2022/01/20 06:00:35;;;;;;;10.43;5.25;;;;;;;;;;4995945;28;20137;-68
2022/01/20 06:05:46;;;;;;;11.73;6.10;;;;;;;;;;4995929;28;20061;-68
2022/01/20 06:08:13;;;;;;;11.10;5.63;;;;;;;;;;4995157;28;20057;-68
2022/01/20 06:10:40;;;;;;;13.93;6.50;;;;;;;;;;4993864;28;20422;-67
2022/01/20 06:13:10;;;;;;;10.48;5.32;;;;;;;;;;4995130;28;20434;-68
2022/01/20 06:15:37;;;;;;;13.55;7.07;;;;;;;;;;4995278;28;20054;-68
2022/01/20 06:18:05;;;;;;;11.63;5.68;;;;;;;;;;4993657;28;20141;-67
2022/01/20 06:20:33;;;;;;;13.13;5.97;;;;;;;;;;4993873;28;20541;-67
2022/01/20 06:23:01;;;;;;;10.93;5.85;;;;;;;;;;4994404;28;20142;-68
2022/01/20 06:25:28;;;;;;;13.80;7.00;;;;;;;;;;4994271;28;20165;-67
2022/01/20 06:27:55;;;;;;;12.50;6.97;;;;;;;;;;4993686;28;20089;-67
2022/01/20 06:30:24;;;;;;;13.57;6.28;;;;;;;;;;4993886;28;20145;-67
2022/01/20 06:32:51;;;;;;;12.88;6.10;;;;;;;;;;4994176;28;20279;-68
2022/01/20 06:35:19;;;;;;;12.73;6.40;;;;;;;;;;4993633;28;20156;-68
2022/01/20 06:37:45;;;;;;;12.73;6.00;;;;;;;;;;4993438;28;20053;-67
2022/01/20 06:40:13;;;;;;;16.75;7.90;;;;;;;;;;4993671;28;20134;-66
2022/01/20 06:42:40;;;;;;;10.27;5.75;;;;;;;;;;4993358;28;20480;-67
2022/01/20 06:45:10;;;;;;;9.45;5.45;;;;;;;;;;4993563;28;20133;-67
2022/01/20 06:47:39;;;;;;;10.35;5.88;;;;;;;;;;4993670;28;20514;-67
2022/01/20 06:50:09;;;;;;;11.25;5.60;;;;;;;;;;4993627;28;20488;-67
2022/01/20 06:52:37;;;;;;;10.85;5.53;;;;;;;;;;4993867;28;20468;-67
2022/01/20 06:55:05;;;;;;;9.10;5.30;;;;;;;;;;4993104;28;20057;-67
2022/01/20 06:57:33;;;;;;;10.50;5.20;;;;;;;;;;4993205;28;20546;-69
2022/01/20 07:00:00;;;;;;;9.05;5.30;;;;;;;;;;4993255;28;20047;-67
2022/01/20 07:02:27;;;;;;;8.73;4.95;;;;;;;;;;4993390;28;20046;-68
2022/01/20 07:04:55;;;;;;;8.93;4.78;;;;;;;;;;4992918;28;20133;-67
2022/01/20 07:07:22;;;;;;;9.15;5.07;;;;;;;;;;4992702;28;20069;-68
2022/01/20 07:09:49;;;;;;;8.57;4.85;;;;;;;;;;4993448;28;20053;-68
2022/01/20 07:12:16;;;;;;;8.57;4.80;;;;;;;;;;4993113;28;20064;-68
2022/01/20 07:14:43;;;;;;;9.43;4.70;;;;;;;;;;4995497;28;20506;-68
2022/01/20 07:17:10;;;;;;;9.07;4.53;;;;;;;;;;4996655;28;20056;-68
2022/01/20 07:19:37;;;;;;;8.88;4.63;;;;;;;;;;4996865;28;20055;-69
2022/01/20 07:22:06;;;;;;;7.93;3.70;;;;;;;;;;4996693;28;20057;-67
2022/01/20 07:24:33;;;;;;;7.38;4.38;;;;;;;;;;4997072;28;20064;-69
2022/01/20 07:27:00;;;;;;;7.15;4.07;;;;;;;;;;4996389;28;20050;-68
2022/01/20 07:29:28;;;;;;;6.95;3.80;;;;;;;;;;4996740;28;20054;-68
2022/01/20 07:31:55;;;;;;;8.70;4.68;;;;;;;;;;4996943;28;20113;-68
2022/01/20 07:34:22;;;;;;;9.35;4.20;;;;;;;;;;4997034;28;20097;-68
2022/01/20 07:36:49;;;;;;;9.32;4.85;;;;;;;;;;4996121;28;20050;-67
2022/01/20 07:39:17;;;;;;;8.80;4.43;;;;;;;;;;4996776;28;20078;-68
2022/01/20 07:41:44;;;;;;;9.18;4.60;;;;;;;;;;4996073;28;20056;-68
2022/01/20 07:44:11;;;;;;;9.15;4.30;;;;;;;;;;4996006;28;20418;-68
2022/01/20 07:46:38;;;;;;;10.38;4.32;;;;;;;;;;4995165;28;20518;-68
2022/01/20 07:49:05;;;;;;;8.88;4.80;;;;;;;;;;4996107;28;20062;-68
2022/01/20 07:51:32;;;;;;;8.93;4.90;;;;;;;;;;4997541;28;20137;-68
2022/01/20 07:53:59;;;;;;;10.10;4.93;;;;;;;;;;4997554;28;20054;-68
2022/01/20 07:56:28;;;;;;;9.73;4.88;;;;;;;;;;4997139;28;20086;-67
2022/01/20 07:58:55;;;;;;;7.97;4.38;;;;;;;;;;4997001;28;20133;-68
2022/01/20 08:01:24;;;;;;;9.18;4.28;;;;;;;;;;4996976;28;20066;-68
2022/01/20 08:03:52;;;;;;;7.85;4.35;;;;;;;;;;4996733;28;20058;-69
2022/01/20 08:06:19;;;;;;;8.00;4.00;;;;;;;;;;4996228;28;20128;-70
2022/01/20 08:08:46;;;;;;;8.45;4.57;;;;;;;;;;4996209;28;20384;-67
2022/01/20 08:11:14;;;;;;;7.00;4.07;;;;;;;;;;4993544;28;20054;-68
2022/01/20 08:13:42;;;;;;;8.68;4.90;;;;;;;;;;4994542;28;20050;-67
2022/01/20 08:16:09;;;;;;;7.78;4.53;;;;;;;;;;4994742;28;20085;-67
2022/01/20 08:18:36;;;;;;;9.35;4.90;;;;;;;;;;4994087;28;20096;-67
2022/01/20 08:21:03;;;;;;;8.55;4.50;;;;;;;;;;4995493;28;20050;-69
2022/01/20 08:23:30;;;;;;;7.40;4.28;;;;;;;;;;4996308;28;20096;-68
2022/01/20 08:25:57;;;;;;;7.65;4.20;;;;;;;;;;4993915;28;20050;-68
2022/01/20 08:28:25;;;;;;;9.70;5.15;;;;;;;;;;4994842;28;20046;-67
2022/01/20 08:30:53;;;;;;;9.20;4.18;;;;;;;;;;4994430;28;20467;-67
2022/01/20 08:33:20;;;;;;;8.38;4.65;;;;;;;;;;4992740;28;20384;-68
2022/01/20 08:35:47;;;;;;;6.68;4.25;;;;;;;;;;4992470;28;20050;-68
2022/01/20 08:38:15;;;;;;;8.57;4.10;;;;;;;;;;4992087;28;20057;-65
2022/01/20 08:40:42;;;;;;;6.68;3.80;;;;;;;;;;4992574;28;20046;-65
2022/01/20 08:43:09;;;;;;;7.43;3.70;;;;;;;;;;4992173;28;20061;-66
2022/01/20 08:45:38;;;;;;;7.30;3.90;;;;;;;;;;4992959;28;20061;-65
2022/01/20 08:48:08;;;;;;;6.53;3.70;;;;;;;;;;4992235;28;20046;-65
2022/01/20 08:50:36;;;;;;;6.57;3.45;;;;;;;;;;4992034;28;20082;-65
2022/01/20 08:53:03;;;;;;;6.65;4.20;;;;;;;;;;4994172;28;20053;-65
2022/01/20 08:55:30;;;;;;;9.23;4.50;;;;;;;;;;4992399;28;20454;-65
2022/01/20 08:57:59;;;;;;;6.45;4.07;;;;;;;;;;4991852;28;20047;-66
2022/01/20 09:00:29;;;;;;;8.70;4.05;;;;;;;;;;4992001;28;20054;-66
2022/01/20 09:02:56;;;;;;;10.65;5.20;;;;;;;;;;4991843;28;20050;-65
2022/01/20 09:05:24;;;;;;;8.52;4.45;;;;;;;;;;4992477;28;20162;-66
2022/01/20 09:07:51;;;;;;;7.53;4.40;;;;;;;;;;4991771;28;20149;-66
2022/01/20 09:10:20;;;;;;;8.07;4.57;;;;;;;;;;4991785;28;20500;-67
2022/01/20 09:15:32;;;;;;;6.85;3.65;;;;;;;;;;4991756;28;20172;-66
2022/01/20 09:18:02;;;;;;;9.10;4.13;;;;;;;;;;4991624;28;20460;-66
2022/01/20 09:20:31;;;;;;;7.35;4.72;;;;;;;;;;4992236;28;20129;-65
2022/01/20 09:22:59;;;;;;;8.95;4.28;;;;;;;;;;4991812;28;20415;-65
2022/01/20 09:25:26;;;;;;;7.13;3.95;;;;;;;;;;4992525;28;20050;-65
2022/01/20 09:27:55;;;;;;;6.70;4.03;;;;;;;;;;4992012;28;20522;-66
2022/01/20 09:30:25;;;;;;;8.40;4.50;;;;;;;;;;4992020;28;20419;-65
2022/01/20 09:33:08;;;;;;;7.55;4.55;;;;;;;;;;4992477;28;20073;-66
2022/01/20 09:35:39;;;;;;;8.98;4.82;;;;;;;;;;4992077;28;20050;-66
2022/01/20 09:38:07;;;;;;;10.90;4.50;;;;;;;;;;4991049;28;20420;-66
2022/01/20 09:40:35;;;;;;;8.10;4.70;;;;;;;;;;4991489;28;20093;-65
2022/01/20 09:43:04;;;;;;;7.20;4.40;;;;;;;;;;4991704;28;20053;-66
2022/01/20 09:45:31;;;;;;;7.20;4.07;;;;;;;;;;4991816;28;20057;-66
2022/01/20 09:47:59;;;;;;;6.72;4.15;;;;;;;;;;4991483;28;20396;-65
2022/01/20 09:50:26;;;;;;;8.02;4.22;;;;;;;;;;4991511;28;20055;-65
2022/01/20 09:52:59;;;;;;;9.95;4.78;;;;;;;;;;4991544;28;20050;-66
2022/01/20 09:55:27;;;;;;;8.10;4.50;;;;;;;;;;4991529;28;20054;-67
2022/01/20 09:57:54;;;;;;;6.32;4.00;;;;;;;;;;4991625;28;20046;-66
2022/01/20 10:00:22;;;;;;;8.10;3.97;;;;;;;;;;4991720;28;20058;-66
2022/01/20 10:02:57;;;;;;;7.88;4.38;;;;;;;;;;5013565;23;20104;-60
2022/01/20 10:05:29;;;;;;;5.95;3.35;;;;;;;;;;5012556;28;20137;-59
2022/01/20 10:08:04;;;;;;;6.53;4.13;;;;;;;;;;5012353;28;20069;-63
2022/01/20 10:10:40;;;;;;;6.32;3.90;;;;;;;;;;5013084;28;20050;-67
2022/01/20 10:13:08;;;;;;;5.70;3.40;;;;;;;;;;5019266;28;20140;-67
2022/01/20 10:15:35;;;;;;;7.57;3.45;;;;;;;;;;5014411;28;20050;-60
2022/01/20 10:18:07;;;;;;;7.00;4.07;;;;;;;;;;5013541;28;20046;-62
2022/01/20 10:20:34;;;;;;;10.32;4.32;;;;;;;;;;5013035;28;20046;-61
2022/01/20 10:23:03;;;;;;;9.02;3.88;;;;;;;;;;5013092;28;20050;-60
2022/01/20 10:25:35;;;;;;;10.25;4.55;;;;;;;;;;5012611;28;20056;-61
2022/01/20 10:28:03;;;;;;;7.20;3.90;;;;;;;;;;5012584;28;20050;-61
2022/01/20 10:30:31;;;;;;;8.43;4.13;;;;;;;;;;5013013;28;20431;-59
2022/01/20 10:33:00;;;;;;;7.70;3.97;;;;;;;;;;5012883;28;20041;-61
2022/01/20 10:35:31;;;;;;;7.97;4.47;;;;;;;;;;5013021;28;20555;-60
2022/01/20 10:38:10;;;;;;;8.30;4.25;;;;;;;;;;5013012;28;20077;-61
2022/01/20 10:40:48;;;;;;;8.18;4.80;;;;;;;;;;5012924;28;20562;-61
2022/01/20 10:43:23;;;;;;;8.23;4.45;;;;;;;;;;5013504;28;20050;-61
2022/01/20 10:45:50;;;;;;;7.53;4.10;;;;;;;;;;5012800;28;20045;-61
2022/01/20 10:48:21;;;;;;;8.65;4.55;;;;;;;;;;5014777;28;20304;-60
2022/01/20 10:50:48;;;;;;;7.00;4.13;;;;;;;;;;5036674;28;20085;-60
2022/01/20 10:53:20;;;;;;;8.98;4.80;;;;;;;;;;5036690;28;20046;-61
2022/01/20 10:55:48;;;;;;;7.75;4.07;;;;;;;;;;5037257;28;20045;-61
2022/01/20 10:58:17;;;;;;;7.22;4.28;;;;;;;;;;5036139;28;20049;-63
2022/01/20 11:00:47;;;;;;;8.25;4.40;;;;;;;;;;5036952;28;20429;-62
2022/01/20 11:03:15;;;;;;;10.07;4.97;;;;;;;;;;5036265;28;20080;-61
2022/01/20 11:05:44;;;;;;;7.68;4.43;;;;;;;;;;5035892;28;20452;-61
2022/01/20 11:08:11;;;;;;;8.30;4.18;;;;;;;;;;5035663;28;20136;-60
2022/01/20 11:10:40;;;;;;;7.50;3.75;;;;;;;;;;5036610;28;20053;-61
2022/01/20 11:13:10;;;;;;;8.60;4.68;;;;;;;;;;5023672;28;20534;-62
2022/01/20 11:15:38;;;;;;;8.32;4.28;;;;;;;;;;5014959;28;20053;-61
2022/01/20 11:18:06;;;;;;;9.23;4.25;;;;;;;;;;5015515;28;20326;-61
2022/01/20 11:20:40;;;;;;;7.20;4.40;;;;;;;;;;5017009;28;20041;-59
2022/01/20 11:23:08;;;;;;;8.13;4.47;;;;;;;;;;5016138;28;20057;-58
2022/01/20 11:25:38;;;;;;;7.07;3.63;;;;;;;;;;5016370;28;20046;-61
2022/01/20 11:28:08;;;;;;;9.00;4.97;;;;;;;;;;5016829;28;20152;-61
2022/01/20 11:30:39;;;;;;;7.00;4.32;;;;;;;;;;5015882;28;20100;-61
2022/01/20 11:33:08;;;;;;;6.45;3.25;;;;;;;;;;5016943;28;20530;-59
2022/01/20 11:35:44;;;;;;;7.35;3.92;;;;;;;;;;5016601;28;20046;-60
2022/01/20 11:38:14;;;;;;;8.00;4.18;;;;;;;;;;5015061;28;20056;-62
2022/01/20 11:40:52;;;;;;;7.03;3.50;;;;;;;;;;5019007;28;20076;-61
2022/01/20 11:43:31;;;;;;;7.07;3.70;;;;;;;;;;5015203;28;20057;-61
2022/01/20 11:46:13;;;;;;;6.07;3.45;;;;;;;;;;5016242;28;20073;-59
2022/01/20 11:48:51;;;;;;;7.72;3.50;;;;;;;;;;5015205;28;20077;-61
2022/01/20 11:51:18;;;;;;;8.43;3.63;;;;;;;;;;5014456;28;20110;-62
2022/01/20 11:53:57;;;;;;;5.70;2.65;;;;;;;;;;5013821;28;20069;-59
2022/01/20 11:56:36;;;;;;;6.00;3.13;;;;;;;;;;5013003;28;20427;-60
2022/01/20 11:59:04;;;;;;;5.63;2.58;;;;;;;;;;5012834;28;20054;-61
2022/01/20 12:01:43;;;;;;;7.57;3.40;;;;;;;;;;5013042;28;20386;-60
2022/01/20 12:04:10;;;;;;;6.43;3.08;;;;;;;;;;5012688;28;20042;-61
2022/01/20 12:06:44;;;;;;;6.85;3.10;;;;;;;;;;5015858;28;20056;-60
2022/01/20 12:09:13;;;;;;;7.97;2.60;;;;;;;;;;4993131;28;20078;-59
2022/01/20 12:11:44;;;;;;;7.65;3.17;;;;;;;;;;4996410;28;20068;-61
2022/01/20 12:14:12;;;;;;;7.40;3.78;;;;;;;;;;5012116;28;20484;-61
2022/01/20 12:16:41;;;;;;;5.88;3.40;;;;;;;;;;5012755;28;20384;-61
2022/01/20 12:19:11;;;;;;;5.85;2.95;;;;;;;;;;5012564;28;20054;-61
2022/01/20 12:21:39;;;;;;;9.43;3.60;;;;;;;;;;5012767;28;20049;-61
2022/01/20 12:24:07;;;;;;;6.25;3.30;;;;;;;;;;5012301;28;20050;-61
2022/01/20 12:26:35;;;;;;;5.78;3.22;;;;;;;;;;5012528;28;20148;-61
2022/01/20 12:29:05;;;;;;;6.97;2.92;;;;;;;;;;5010758;28;20454;-61
2022/01/20 12:31:32;;;;;;;5.15;2.63;;;;;;;;;;5012363;28;20053;-59
2022/01/20 12:34:02;;;;;;;8.00;3.03;;;;;;;;;;5012130;28;20172;-60
2022/01/20 12:36:29;;;;;;;7.97;3.17;;;;;;;;;;5012541;28;20396;-59
2022/01/20 12:38:56;;;;;;;5.57;2.97;;;;;;;;;;5012207;28;20054;-62
2022/01/20 12:41:24;;;;;;;7.93;2.85;;;;;;;;;;5011688;28;20050;-60
2022/01/20 12:43:56;;;;;;;8.15;3.40;;;;;;;;;;5011994;28;20713;-59
2022/01/20 12:46:25;;;;;;;9.80;4.00;;;;;;;;;;5019439;28;20058;-59
2022/01/20 12:48:58;;;;;;;7.45;3.33;;;;;;;;;;5022365;28;20101;-61
2022/01/20 12:51:39;;;;;;;8.05;3.55;;;;;;;;;;5022303;28;20477;-60
2022/01/20 12:54:10;;;;;;;7.13;3.83;;;;;;;;;;5021659;28;20141;-60
2022/01/20 12:56:39;;;;;;;7.55;3.63;;;;;;;;;;5017027;28;20093;-60
2022/01/20 12:59:07;;;;;;;7.97;3.50;;;;;;;;;;5021419;28;20049;-60
2022/01/20 13:01:43;;;;;;;8.13;3.40;;;;;;;;;;5021405;28;20491;-61
2022/01/20 13:04:10;;;;;;;8.50;4.28;;;;;;;;;;5012387;28;20052;-61
2022/01/20 13:06:45;;;;;;;9.13;3.90;;;;;;;;;;5011629;28;20427;-62
2022/01/20 13:09:12;;;;;;;6.97;3.85;;;;;;;;;;5016272;28;20084;-60
2022/01/20 13:11:44;;;;;;;7.05;3.20;;;;;;;;;;5019619;28;20487;-62
2022/01/20 13:14:12;;;;;;;5.35;2.92;;;;;;;;;;5020006;28;20042;-62
2022/01/20 13:16:49;;;;;;;7.88;3.47;;;;;;;;;;5010759;28;20082;-61
2022/01/20 13:19:16;;;;;;;7.20;3.63;;;;;;;;;;5000053;28;20130;-63
2022/01/20 13:21:52;;;;;;;8.48;4.10;;;;;;;;;;4999263;28;20054;-60
2022/01/20 13:24:26;;;;;;;7.43;3.65;;;;;;;;;;5013681;28;20053;-58
2022/01/20 13:26:54;;;;;;;6.95;3.47;;;;;;;;;;5019057;28;20458;-60
2022/01/20 13:29:23;;;;;;;6.35;3.47;;;;;;;;;;5020435;28;20124;-60
2022/01/20 13:31:51;;;;;;;6.70;3.40;;;;;;;;;;5017749;28;20081;-61
2022/01/20 13:34:20;;;;;;;6.80;2.88;;;;;;;;;;5021179;28;20125;-60
2022/01/20 13:36:50;;;;;;;7.25;3.83;;;;;;;;;;5020391;28;20060;-61
2022/01/20 13:39:29;;;;;;;4.72;2.88;;;;;;;;;;5017162;28;20054;-62
2022/01/20 13:42:10;;;;;;;6.47;2.95;;;;;;;;;;5019285;28;20050;-61
2022/01/20 13:47:21;;;;;;;12.68;4.15;;;;;;;;;;5003071;28;19932;-61
2022/01/20 13:49:50;;;;;;;6.43;3.50;;;;;;;;;;5001745;28;20045;-60
2022/01/20 13:52:20;;;;;;;6.38;3.40;;;;;;;;;;4998816;28;20053;-60
2022/01/20 13:54:49;;;;;;;8.13;3.35;;;;;;;;;;5003907;28;20050;-60
2022/01/20 13:57:17;;;;;;;7.85;3.65;;;;;;;;;;5030643;28;20136;-60
2022/01/20 13:59:52;;;;;;;6.93;3.55;;;;;;;;;;5029854;28;20105;-59
2022/01/20 14:02:19;;;;;;;5.78;3.13;;;;;;;;;;5029732;28;20065;-63
2022/01/20 14:04:46;;;;;;;6.28;3.72;;;;;;;;;;5030427;28;20259;-62
2022/01/20 14:07:13;;;;;;;6.43;3.28;;;;;;;;;;5029938;28;20056;-60
2022/01/20 14:09:42;;;;;;;8.73;3.72;;;;;;;;;;5030513;28;20053;-59
2022/01/20 14:12:10;;;;;;;7.03;3.60;;;;;;;;;;5030198;28;20045;-61
2022/01/20 14:14:37;;;;;;;5.90;3.58;;;;;;;;;;5030239;28;20064;-60
2022/01/20 14:17:07;;;;;;;7.50;3.67;;;;;;;;;;5029709;28;20053;-61
2022/01/20 14:19:41;;;;;;;6.88;3.45;;;;;;;;;;5029980;28;20060;-60
2022/01/20 14:22:09;;;;;;;6.20;3.13;;;;;;;;;;5030542;28;20419;-61
2022/01/20 14:24:36;;;;;;;7.35;3.80;;;;;;;;;;5032332;28;20050;-61
2022/01/20 14:27:10;;;;;;;6.70;3.47;;;;;;;;;;5033859;28;20504;-60
2022/01/20 14:29:38;;;;;;;6.82;3.85;;;;;;;;;;5034208;28;20079;-60
2022/01/20 14:32:06;;;;;;;6.60;3.40;;;;;;;;;;5034311;28;20053;-58
2022/01/20 14:34:33;;;;;;;7.07;4.15;;;;;;;;;;5034035;28;20052;-59
2022/01/20 14:37:00;;;;;;;6.50;3.20;;;;;;;;;;5033876;28;20052;-61
2022/01/20 14:39:27;;;;;;;6.05;3.17;;;;;;;;;;5034119;28;20051;-61
2022/01/20 14:41:55;;;;;;;6.00;3.45;;;;;;;;;;5034081;28;20391;-59
2022/01/20 14:44:24;;;;;;;7.45;3.50;;;;;;;;;;5033771;28;20136;-59
2022/01/20 14:46:51;;;;;;;6.22;3.40;;;;;;;;;;5034098;28;20487;-60
2022/01/20 14:49:18;;;;;;;6.00;3.65;;;;;;;;;;5033957;28;20087;-61
2022/01/20 14:51:47;;;;;;;7.50;4.13;;;;;;;;;;5034214;28;20053;-60
2022/01/20 14:54:14;;;;;;;6.97;3.00;;;;;;;;;;5033987;28;20057;-60
2022/01/20 14:56:41;;;;;;;5.10;2.58;;;;;;;;;;5034011;28;20082;-59
2022/01/20 14:59:08;;;;;;;6.45;3.20;;;;;;;;;;5033829;28;20050;-62
2022/01/20 15:01:38;;;;;;;7.55;3.33;;;;;;;;;;5034005;28;20079;-59
2022/01/20 15:04:05;;;;;;;8.90;3.33;;;;;;;;;;5033850;28;20045;-61
2022/01/20 15:06:32;;;;;;;8.20;3.80;;;;;;;;;;5033386;28;20538;-60
2022/01/20 15:09:01;;;;;;;7.50;3.95;;;;;;;;;;5033717;28;20054;-60
2022/01/20 15:11:28;;;;;;;7.07;3.72;;;;;;;;;;5033415;28;20048;-61
2022/01/20 15:13:55;;;;;;;7.35;3.08;;;;;;;;;;5033376;28;20053;-60
2022/01/20 15:16:22;;;;;;;2.80;1.30;;;;;;;;;;5033566;28;20058;-61
2022/01/20 15:18:52;;;;;;;2.58;1.13;;;;;;;;;;5028141;28;20046;-60
2022/01/20 15:21:19;;;;;;;5.63;1.35;;;;;;;;;;4993923;28;20050;-59
2022/01/20 15:23:47;;;;;;;3.13;1.10;;;;;;;;;;4994073;28;20564;-61
2022/01/20 15:26:14;;;;;;;3.60;1.30;;;;;;;;;;4994065;28;20065;-67
2022/01/20 15:28:43;;;;;;;3.38;1.10;;;;;;;;;;4993798;28;20538;-65
2022/01/20 15:31:13;;;;;;;4.72;1.88;;;;;;;;;;4994165;28;20053;-64
2022/01/20 15:33:40;;;;;;;3.55;1.23;;;;;;;;;;4993829;28;20050;-59
2022/01/20 15:36:09;;;;;;;4.25;1.50;;;;;;;;;;4993048;28;20252;-61
2022/01/20 15:38:37;;;;;;;3.35;1.23;;;;;;;;;;4993377;28;20060;-61
2022/01/20 15:41:05;;;;;;;2.20;1.02;;;;;;;;;;5017896;28;20509;-61
2022/01/20 15:43:32;;;;;;;2.53;1.30;;;;;;;;;;5033192;28;20064;-61
2022/01/20 15:46:00;;;;;;;4.28;1.75;;;;;;;;;;5032758;28;20089;-61
2022/01/20 15:48:28;;;;;;;4.85;2.67;;;;;;;;;;5032612;28;20114;-60